Time;durP1;ratioP1;P1;durP2;ratioP2;P2;SDS_P1;SDS_P2;PMS_P1;PMS_P2;Temp;Humidity;BMP_temperature;BMP_pressure;BME280_temperature;BME280_humidity;BME280_pressure;Samples;Min_cycle;Max_cycle;Signal;HPM_P1;HPM_P2
2022/08/17 00:00:41;;;;;;;;;14.00;13.25;;;;;26.45;49.14;100381.34;5077457;28;45419;-47
2022/08/17 00:03:13;;;;;;;;;15.00;12.25;;;;;26.44;49.13;100374.34;5077198;28;45352;-46
2022/08/17 00:05:55;;;;;;;;;11.00;11.00;;;;;26.44;48.64;100368.19;5080961;28;45346;-45
2022/08/17 00:08:28;;;;;;;;;11.25;10.50;;;;;26.41;49.16;100358.66;5078002;28;45677;-48
2022/08/17 00:10:54;;;;;;;;;11.50;11.50;;;;;26.40;48.72;100359.66;5075651;28;45379;-48
2022/08/17 00:13:28;;;;;;;;;12.25;12.00;;;;;26.38;48.90;100349.16;5076519;28;45707;-45
2022/08/17 00:15:58;;;;;;;;;8.50;8.50;;;;;26.38;48.86;100353.63;5076647;28;45312;-47
2022/08/17 00:18:24;;;;;;;;;12.00;11.00;;;;;26.37;48.85;100352.78;5076416;28;46548;-47
2022/08/17 00:20:50;;;;;;;;;11.00;10.00;;;;;26.41;48.53;100347.19;5076435;28;45790;-48
2022/08/17 00:23:16;;;;;;;;;11.75;11.00;;;;;26.41;49.09;100350.69;5076864;28;45414;-47
2022/08/17 00:25:44;;;;;;;;;12.50;11.50;;;;;26.44;48.48;100360.22;5077206;28;45398;-46
2022/08/17 00:28:11;;;;;;;;;14.00;10.75;;;;;26.44;48.79;100354.91;5076577;28;46189;-48
2022/08/17 00:30:37;;;;;;;;;13.25;12.00;;;;;26.44;48.66;100355.75;5077141;28;45823;-48
2022/08/17 00:33:09;;;;;;;;;16.25;11.75;;;;;26.44;48.67;100352.25;5079864;28;45340;-47
2022/08/17 00:35:35;;;;;;;;;11.50;10.75;;;;;26.43;49.07;100354.06;5077924;28;45525;-47
2022/08/17 00:38:00;;;;;;;;;13.75;12.25;;;;;26.44;48.75;100352.25;5082692;28;45340;-47
2022/08/17 00:40:25;;;;;;;;;12.75;12.25;;;;;26.44;48.80;100342.44;5082579;28;45240;-45
2022/08/17 00:42:52;;;;;;;;;15.25;12.00;;;;;26.45;48.69;100341.47;5082734;28;45461;-46
2022/08/17 00:45:19;;;;;;;;;15.25;13.00;;;;;26.45;48.80;100343.31;5072257;28;45427;-49
2022/08/17 00:47:45;;;;;;;;;13.75;11.75;;;;;26.46;49.21;100340.50;5082450;28;47394;-47
2022/08/17 00:50:15;;;;;;;;;15.50;13.25;;;;;26.44;48.60;100325.69;5080883;28;45776;-46
2022/08/17 00:52:53;;;;;;;;;15.50;13.50;;;;;26.45;48.93;100330.84;5084491;28;45398;-47
2022/08/17 00:55:20;;;;;;;;;16.75;15.50;;;;;26.45;49.11;100333.50;5082785;28;45916;-48
2022/08/17 00:57:52;;;;;;;;;15.75;13.75;;;;;26.43;48.52;100335.44;5081438;28;46062;-47
2022/08/17 01:00:25;;;;;;;;;17.75;16.50;;;;;26.44;48.92;100337.13;5079897;28;45707;-49
2022/08/17 01:02:57;;;;;;;;;17.25;14.75;;;;;26.43;49.13;100343.44;5076016;28;45779;-47
2022/08/17 01:05:24;;;;;;;;;19.00;17.00;;;;;26.42;49.27;100347.06;5076859;28;45400;-47
2022/08/17 01:07:50;;;;;;;;;14.25;12.50;;;;;26.43;49.00;100354.06;5076212;28;46035;-48
2022/08/17 01:10:21;;;;;;;;;16.50;16.50;;;;;26.45;48.73;100360.06;5076544;28;45346;-48
2022/08/17 01:12:48;;;;;;;;;19.00;16.50;;;;;26.43;49.01;100346.09;5076114;28;45400;-48
2022/08/17 01:15:14;;;;;;;;;17.75;15.00;;;;;26.44;48.93;100339.78;5077106;28;45343;-46
2022/08/17 01:17:39;;;;;;;;;18.00;14.00;;;;;26.46;48.54;100343.16;5058583;28;46390;-49
2022/08/17 01:20:05;;;;;;;;;16.50;16.25;;;;;26.46;48.87;100345.81;5076548;28;45371;-48
2022/08/17 01:22:31;;;;;;;;;17.25;16.00;;;;;26.46;49.04;100350.31;5076808;28;45336;-48
2022/08/17 01:24:59;;;;;;;;;17.75;13.50;;;;;26.45;48.64;100346.78;5077364;28;45319;-47
2022/08/17 01:27:27;;;;;;;;;17.75;16.00;;;;;26.45;48.85;100346.78;5094190;28;46341;-47
2022/08/17 01:29:57;;;;;;;;;18.50;17.00;;;;;26.45;48.90;100345.97;5098482;28;45058;-47
2022/08/17 01:32:24;;;;;;;;;14.25;13.25;;;;;26.42;49.24;100339.09;5088079;28;45226;-46
2022/08/17 01:34:49;;;;;;;;;16.75;16.00;;;;;26.42;48.96;100354.19;5076503;28;45588;-46
2022/08/17 01:37:15;;;;;;;;;18.75;16.00;;;;;26.39;49.28;100352.66;5075444;28;46400;-46
2022/08/17 01:39:49;;;;;;;;;16.75;13.25;;;;;26.38;48.96;100353.63;5076346;28;45303;-46
2022/08/17 01:42:25;;;;;;;;;17.75;14.00;;;;;26.37;49.44;100344.81;5077093;28;45402;-46
2022/08/17 01:44:55;;;;;;;;;16.00;13.00;;;;;26.37;49.17;100354.59;5077307;28;45385;-48
2022/08/17 01:47:21;;;;;;;;;13.75;13.00;;;;;26.35;49.25;100348.59;5085659;28;45657;-47
2022/08/17 01:49:46;;;;;;;;;15.50;15.50;;;;;26.34;49.51;100346.91;5088685;28;45265;-46
2022/08/17 01:52:12;;;;;;;;;14.75;12.75;;;;;26.30;49.02;100351.66;5077366;28;45354;-47
2022/08/17 01:54:40;;;;;;;;;11.50;10.75;;;;;26.27;49.33;100351.09;5082846;28;45684;-46
2022/08/17 01:57:05;;;;;;;;;13.25;12.75;;;;;26.23;49.31;100351.34;5084752;27;47314;-46
2022/08/17 01:59:32;;;;;;;;;13.75;13.00;;;;;26.22;49.59;100357.63;5102669;28;45425;-48
2022/08/17 02:01:57;;;;;;;;;16.25;14.00;;;;;26.18;49.86;100363.34;5102623;28;45516;-46
2022/08/17 02:04:23;;;;;;;;;12.75;12.75;;;;;26.15;49.87;100363.59;5086352;27;45612;-46
2022/08/17 02:06:49;;;;;;;;;14.50;11.00;;;;;26.13;49.66;100366.41;5098406;27;46887;-47
2022/08/17 02:09:14;;;;;;;;;14.75;12.00;;;;;26.08;49.86;100364.13;5079947;28;45874;-46
2022/08/17 02:11:39;;;;;;;;;15.25;13.75;;;;;26.08;49.85;100368.56;5079445;28;45363;-45
2022/08/17 02:14:07;;;;;;;;;15.25;12.50;;;;;26.08;49.47;100371.22;5078913;28;45570;-46
2022/08/17 02:16:35;;;;;;;;;16.50;14.75;;;;;26.06;50.02;100365.22;5078414;28;46363;-44
2022/08/17 02:19:00;;;;;;;;;8.25;7.75;;;;;26.03;50.01;100368.97;5078685;28;45277;-46
2022/08/17 02:21:27;;;;;;;;;12.00;12.00;;;;;26.02;49.83;100366.47;5078956;28;45346;-45
2022/08/17 02:23:54;;;;;;;;;11.75;11.75;;;;;26.01;50.06;100359.47;5079319;28;45362;-46
2022/08/17 02:26:20;;;;;;;;;14.50;12.75;;;;;26.01;49.68;100352.34;5078846;28;46439;-45
2022/08/17 02:28:46;;;;;;;;;12.00;12.00;;;;;26.03;49.98;100354.88;5078785;28;45290;-45
2022/08/17 02:31:11;;;;;;;;;13.75;13.75;;;;;26.01;49.99;100355.00;5060791;28;53709;-45
2022/08/17 02:33:38;;;;;;;;;12.50;11.25;;;;;26.04;49.81;100364.53;5079224;28;45385;-44
2022/08/17 02:36:04;;;;;;;;;14.00;12.50;;;;;26.03;49.75;100365.50;5078377;28;47320;-45
2022/08/17 02:38:30;;;;;;;;;13.50;12.25;;;;;26.02;50.26;100363.81;5078856;28;45323;-45
2022/08/17 02:40:57;;;;;;;;;11.75;10.75;;;;;26.03;49.87;100370.81;5078049;28;45524;-44
2022/08/17 02:43:23;;;;;;;;;11.50;11.50;;;;;26.03;49.61;100378.75;5078581;28;45514;-44
2022/08/17 02:45:49;;;;;;;;;14.00;13.00;;;;;26.03;49.95;100376.13;5084682;28;46145;-45
2022/08/17 02:48:14;;;;;;;;;10.75;10.75;;;;;26.04;49.74;100373.31;5079515;28;45307;-45
2022/08/17 02:50:39;;;;;;;;;12.75;12.75;;;;;26.06;49.78;100379.34;5079102;28;45962;-45
2022/08/17 02:53:05;;;;;;;;;15.25;13.00;;;;;26.09;49.65;100380.88;5078631;28;45228;-44
2022/08/17 02:55:33;;;;;;;;;13.00;12.50;;;;;26.11;49.91;100388.75;5079587;28;45337;-45
2022/08/17 02:57:59;;;;;;;;;13.75;13.00;;;;;26.14;49.96;100377.84;5100588;28;45160;-46
2022/08/17 03:00:33;;;;;;;;;13.00;11.50;;;;;26.15;49.99;100380.41;5089470;28;45851;-45
2022/08/17 03:02:59;;;;;;;;;15.25;13.25;;;;;26.18;49.86;100372.13;5078691;28;45539;-44
2022/08/17 03:05:26;;;;;;;;;13.50;13.00;;;;;26.19;49.66;100360.53;5078355;28;45705;-44
2022/08/17 03:07:52;;;;;;;;;12.75;12.75;;;;;26.21;49.50;100358.59;5077225;28;45391;-45
2022/08/17 03:10:19;;;;;;;;;13.75;12.00;;;;;26.21;49.43;100349.81;5087402;28;45429;-44
2022/08/17 03:12:45;;;;;;;;;12.75;10.00;;;;;26.20;49.42;100351.59;5086978;28;45544;-46
2022/08/17 03:15:14;;;;;;;;;15.00;12.75;;;;;26.21;49.50;100352.47;5077682;28;45415;-46
2022/08/17 03:17:39;;;;;;;;;13.00;12.50;;;;;26.20;49.78;100350.78;5077436;28;45600;-45
2022/08/17 03:20:06;;;;;;;;;13.25;11.25;;;;;26.21;49.17;100347.16;5078126;28;45498;-45
2022/08/17 03:22:38;;;;;;;;;13.00;13.00;;;;;26.21;49.71;100350.63;5078658;28;45599;-44
2022/08/17 03:25:05;;;;;;;;;14.75;13.25;;;;;26.20;49.16;100346.28;5093045;28;46551;-46
2022/08/17 03:27:31;;;;;;;;;14.50;13.50;;;;;26.20;49.12;100343.63;5085684;28;45775;-45
2022/08/17 03:29:56;;;;;;;;;15.00;14.00;;;;;26.20;49.09;100335.66;5077804;28;45877;-48
2022/08/17 03:32:21;;;;;;;;;15.75;13.00;;;;;26.20;49.31;100335.66;5078296;28;45314;-45
2022/08/17 03:34:47;;;;;;;;;13.00;13.00;;;;;26.21;48.90;100323.25;5077679;28;46714;-47
2022/08/17 03:37:12;;;;;;;;;16.00;15.00;;;;;26.18;49.58;100316.38;5078123;28;45473;-46
2022/08/17 03:39:37;;;;;;;;;11.25;11.25;;;;;26.21;49.07;100323.25;5077937;28;45370;-45
2022/08/17 03:42:18;;;;;;;;;11.50;11.25;;;;;26.23;48.82;100330.09;5077639;28;45355;-45
2022/08/17 03:44:48;;;;;;;;;15.25;13.25;;;;;26.22;48.93;100327.59;5077951;28;45536;-45
2022/08/17 03:58:09;;;;;;;;;12.50;12.00;;;;;26.24;48.71;100345.06;5077467;28;45682;-46
2022/08/17 04:00:35;;;;;;;;;15.00;13.75;;;;;26.24;48.99;100350.38;5077345;28;45473;-47
2022/08/17 04:03:01;;;;;;;;;16.50;16.25;;;;;26.23;49.18;100356.66;5077560;28;45545;-46
2022/08/17 04:05:27;;;;;;;;;15.75;14.00;;;;;26.23;48.78;100359.31;5081715;28;46502;-45
2022/08/17 04:07:52;;;;;;;;;12.00;12.00;;;;;26.23;48.89;100367.28;5079865;28;52582;-46
2022/08/17 04:10:17;;;;;;;;;14.75;13.50;;;;;26.23;48.76;100364.63;5076963;28;45406;-46
2022/08/17 04:12:53;;;;;;;;;14.25;14.25;;;;;26.26;49.41;100375.97;5078028;28;45525;-47
2022/08/17 04:15:20;;;;;;;;;16.75;14.00;;;;;26.24;49.29;100374.28;5094709;27;45747;-46
2022/08/17 04:17:46;;;;;;;;;12.75;12.75;;;;;26.25;49.24;100377.75;5084092;28;45375;-47
2022/08/17 04:20:13;;;;;;;;;12.50;12.50;;;;;26.24;49.22;100379.59;5079143;28;45375;-46
2022/08/17 04:22:39;;;;;;;;;15.50;13.50;;;;;26.24;49.44;100376.94;5077654;28;45640;-47
2022/08/17 04:25:14;;;;;;;;;17.00;15.50;;;;;26.25;48.99;100377.75;5077250;28;46293;-48
2022/08/17 04:27:39;;;;;;;;;14.50;13.75;;;;;26.24;49.06;100382.25;5077222;28;45869;-48
2022/08/17 04:30:08;;;;;;;;;13.50;12.75;;;;;26.24;48.82;100379.59;5076987;28;45426;-48
2022/08/17 04:32:50;;;;;;;;;12.50;11.25;;;;;26.24;48.75;100386.69;5077023;28;45485;-46
2022/08/17 04:35:21;;;;;;;;;13.25;11.25;;;;;26.23;49.38;100382.38;5076585;28;45447;-47
2022/08/17 04:37:47;;;;;;;;;14.25;12.00;;;;;26.22;49.23;100370.91;5076731;28;45637;-46
2022/08/17 04:43:18;;;;;;;;;16.75;15.50;;;;;26.00;49.34;100363.94;5077595;28;45252;-46
2022/08/17 04:45:55;;;;;;;;;17.00;17.00;;;;;25.85;49.70;100368.75;5098751;28;47357;-49
2022/08/17 04:48:21;;;;;;;;;17.00;15.50;;;;;25.67;49.92;100370.31;5077437;28;45493;-52
2022/08/17 04:50:48;;;;;;;;;17.00;15.00;;;;;25.50;50.25;100367.28;5076973;28;45394;-48
2022/08/17 04:53:15;;;;;;;;;16.75;15.50;;;;;25.39;50.00;100367.31;5077311;28;45332;-50
2022/08/17 04:55:41;;;;;;;;;22.00;20.00;;;;;25.26;50.51;100356.88;5077122;28;46630;-50
2022/08/17 04:58:08;;;;;;;;;17.75;17.00;;;;;25.16;50.99;100348.88;5071010;28;45883;-47
2022/08/17 05:00:33;;;;;;;;;17.75;16.50;;;;;25.10;50.89;100349.34;5100057;28;44768;-46
2022/08/17 05:02:59;;;;;;;;;18.25;16.50;;;;;24.99;51.25;100342.31;5093550;28;45208;-48
2022/08/17 05:05:30;;;;;;;;;21.75;18.25;;;;;24.95;51.43;100338.22;5059010;28;47055;-46
2022/08/17 05:07:58;;;;;;;;;17.00;15.75;;;;;24.94;51.45;100344.47;5076740;28;46397;-46
2022/08/17 05:10:27;;;;;;;;;16.00;15.25;;;;;24.94;51.13;100340.03;5076520;28;45220;-49
2022/08/17 05:13:02;;;;;;;;;17.50;16.75;;;;;24.90;51.77;100330.63;5076044;28;45640;-46
2022/08/17 05:15:28;;;;;;;;;17.25;17.25;;;;;24.88;51.36;100340.50;5076675;28;45508;-51
2022/08/17 05:17:54;;;;;;;;;16.50;16.50;;;;;24.85;51.69;100359.34;5076200;28;45367;-47
2022/08/17 05:20:20;;;;;;;;;19.00;16.75;;;;;24.83;51.23;100362.09;5076813;28;45770;-47
2022/08/17 05:22:49;;;;;;;;;20.50;18.25;;;;;24.81;51.30;100353.44;5076223;28;45338;-46
2022/08/17 05:25:18;;;;;;;;;16.75;15.75;;;;;24.79;51.72;100355.38;5080955;28;47456;-56
2022/08/17 05:27:43;;;;;;;;;14.75;14.75;;;;;24.76;51.47;100346.81;5082028;28;45969;-48
2022/08/17 05:30:09;;;;;;;;;15.75;15.00;;;;;24.73;51.90;100342.63;5080042;28;45581;-48
2022/08/17 05:32:35;;;;;;;;;16.75;15.50;;;;;24.72;51.32;100337.44;5080275;28;45222;-47
2022/08/17 05:35:00;;;;;;;;;18.50;18.50;;;;;24.67;51.58;100335.16;5079916;28;46294;-48
2022/08/17 05:37:26;;;;;;;;;18.00;16.00;;;;;24.65;51.92;100334.44;5079826;28;45251;-47
2022/08/17 05:39:52;;;;;;;;;19.00;17.75;;;;;24.56;51.85;100336.00;5080370;28;45330;-47
2022/08/17 05:42:18;;;;;;;;;17.25;16.00;;;;;24.57;52.04;100340.34;5082484;28;45356;-48
2022/08/17 05:44:43;;;;;;;;;19.25;17.25;;;;;24.53;52.12;100346.84;5080417;28;45346;-48
2022/08/17 05:47:09;;;;;;;;;21.50;19.75;;;;;24.49;52.47;100343.59;5079463;28;45205;-46
2022/08/17 05:49:34;;;;;;;;;21.00;18.00;;;;;24.48;52.25;100341.09;5079730;28;45526;-48
2022/08/17 05:52:25;;;;;;;;;20.00;19.00;;;;;24.47;52.46;100339.38;5079619;28;46062;-47
2022/08/17 05:55:08;;;;;;;;;21.50;17.50;;;;;24.48;52.61;100328.66;5079504;28;46661;-47
2022/08/17 05:57:58;;;;;;;;;17.75;17.50;;;;;24.51;52.56;100324.94;5079321;28;45997;-47
2022/08/17 06:00:35;;;;;;;;;17.00;15.00;;;;;24.58;52.88;100320.81;5079234;28;45331;-47
2022/08/17 06:03:29;;;;;;;;;22.00;19.50;;;;;24.65;52.82;100322.00;5080102;28;45351;-47
2022/08/17 06:06:16;;;;;;;;;22.25;21.00;;;;;24.74;52.51;100316.97;5086327;28;45441;-48
2022/08/17 06:09:14;;;;;;;;;27.00;24.00;;;;;24.79;52.35;100330.69;5079916;28;45288;-48
2022/08/17 06:11:55;;;;;;;;;25.00;20.75;;;;;24.77;52.43;100329.94;5078925;28;45732;-46
2022/08/17 06:14:52;;;;;;;;;22.50;22.50;;;;;24.72;52.60;100330.31;5080156;28;45441;-47
2022/08/17 06:17:21;;;;;;;;;22.25;20.00;;;;;24.66;52.91;100334.28;5079480;28;47872;-52
2022/08/17 06:19:53;;;;;;;;;22.50;20.00;;;;;24.63;52.72;100345.16;5080653;28;45280;-46
2022/08/17 06:22:22;;;;;;;;;22.00;20.50;;;;;24.58;52.67;100344.66;5083487;28;45406;-47
2022/08/17 06:24:55;;;;;;;;;22.00;18.00;;;;;24.55;53.27;100358.16;5094795;28;45216;-46
2022/08/17 06:27:37;;;;;;;;;22.00;18.50;;;;;24.53;52.85;100363.59;5091318;28;45382;-47
2022/08/17 06:30:19;;;;;;;;;20.00;18.50;;;;;24.52;53.10;100371.66;5101060;28;45201;-49
2022/08/17 06:32:47;;;;;;;;;22.00;21.25;;;;;24.52;53.44;100384.91;5103084;28;44736;-48
2022/08/17 06:35:18;;;;;;;;;24.00;20.00;;;;;24.49;53.40;100404.53;5083397;28;45314;-47
2022/08/17 06:38:13;;;;;;;;;22.00;20.25;;;;;24.47;53.27;100405.63;5079480;28;45669;-50
2022/08/17 06:41:05;;;;;;;;;20.75;19.50;;;;;24.47;53.32;100409.13;5082849;28;45748;-46
2022/08/17 06:43:45;;;;;;;;;23.00;21.00;;;;;24.52;53.62;100400.81;5081896;28;45247;-47
2022/08/17 06:46:29;;;;;;;;;25.00;21.00;;;;;24.58;53.65;100395.00;5093021;28;45412;-47
2022/08/17 06:49:00;;;;;;;;;28.75;22.00;;;;;24.63;52.92;100403.44;5079209;28;46060;-47
2022/08/17 06:51:33;;;;;;;;;24.25;22.75;;;;;24.64;53.26;100394.50;5079297;28;45928;-48
2022/08/17 06:54:05;;;;;;;;;23.00;20.25;;;;;24.68;52.74;100390.69;5078716;28;45393;-50
2022/08/17 06:56:31;;;;;;;;;25.00;23.25;;;;;24.70;52.64;100393.19;5079026;28;45600;-47
2022/08/17 06:58:59;;;;;;;;;24.00;19.25;;;;;24.70;52.67;100396.72;5077461;28;46477;-46
2022/08/17 07:01:30;;;;;;;;;20.50;20.50;;;;;24.70;53.05;100399.38;5078277;28;45843;-49
2022/08/17 07:04:14;;;;;;;;;23.00;20.75;;;;;24.73;52.40;100403.56;5078181;28;45355;-47
2022/08/17 07:06:57;;;;;;;;;22.00;22.00;;;;;24.76;52.51;100397.16;5078469;28;45372;-45
2022/08/17 07:09:34;;;;;;;;;22.75;21.75;;;;;24.76;52.40;100402.47;5077957;28;45558;-45
2022/08/17 07:12:37;;;;;;;;;22.50;22.50;;;;;24.74;52.80;100412.38;5077013;28;45525;-47
2022/08/17 07:15:23;;;;;;;;;18.25;17.25;;;;;24.73;52.79;100410.69;5050410;28;45491;-49
2022/08/17 07:17:49;;;;;;;;;22.25;18.50;;;;;24.73;52.63;100416.81;5078291;28;45512;-48
2022/08/17 07:20:21;;;;;;;;;15.75;15.25;;;;;24.73;52.83;100429.25;5079204;28;47386;-48
2022/08/17 07:23:02;;;;;;;;;21.25;19.75;;;;;24.73;52.85;100445.13;5079699;28;45544;-46
2022/08/17 07:25:29;;;;;;;;;21.00;17.25;;;;;24.69;52.33;100444.53;5095793;28;45268;-48
2022/08/17 07:27:58;;;;;;;;;18.50;18.00;;;;;24.66;52.45;100445.56;5077901;28;45525;-47
2022/08/17 07:30:31;;;;;;;;;22.50;20.00;;;;;24.66;52.34;100455.34;5077623;28;46536;-47
2022/08/17 07:33:02;;;;;;;;;21.75;20.00;;;;;24.63;52.65;100466.19;5077550;28;45892;-48
2022/08/17 07:35:27;;;;;;;;;20.25;16.00;;;;;24.62;52.88;100470.66;5078152;28;45446;-48
2022/08/17 07:38:31;;;;;;;;;19.00;15.33;;;;;24.62;53.03;100481.25;5081752;28;45355;-46
2022/08/17 07:40:56;;;;;;;;;20.50;18.50;;;;;24.61;52.54;100479.56;5081119;28;46029;-47
2022/08/17 07:43:21;;;;;;;;;17.00;14.67;;;;;24.61;52.52;100478.69;5086502;28;45449;-49
2022/08/17 07:49:08;;;;;;;;;18.75;17.25;;;;;24.57;52.63;100475.47;5088269;28;45378;-48
2022/08/17 07:51:42;;;;;;;;;17.33;17.33;;;;;24.56;53.26;100476.41;5087780;28;46344;-48
2022/08/17 07:54:13;;;;;;;;;19.00;19.00;;;;;24.55;52.91;100482.69;5088508;28;45273;-49
2022/08/17 07:56:45;;;;;;;;;20.00;19.50;;;;;24.54;52.83;100487.16;5086574;28;45378;-48
2022/08/17 07:59:17;;;;;;;;;17.50;16.50;;;;;24.54;53.38;100487.16;5090303;28;45344;-46
2022/08/17 08:02:06;;;;;;;;;18.25;18.25;;;;;24.53;53.10;100482.81;5072196;28;46343;-49
2022/08/17 08:04:42;;;;;;;;;16.00;16.00;;;;;24.53;53.65;100485.47;5086457;28;45384;-48
2022/08/17 08:07:33;;;;;;;;;20.25;17.25;;;;;24.55;52.90;100490.63;5080357;28;45351;-47
2022/08/17 08:10:01;;;;;;;;;18.50;17.25;;;;;24.53;53.25;100500.50;5036791;28;45452;-45
2022/08/17 08:12:47;;;;;;;;;18.50;17.25;;;;;24.51;53.20;100495.31;5080397;28;47275;-46
2022/08/17 08:15:32;;;;;;;;;20.00;17.25;;;;;24.50;53.18;100503.41;5078102;28;45847;-44
2022/08/17 08:17:59;;;;;;;;;15.50;15.50;;;;;24.46;53.14;100512.53;5075775;28;45244;-48
2022/08/17 08:20:50;;;;;;;;;17.00;16.50;;;;;24.45;53.69;100519.66;5077513;28;45422;-46
2022/08/17 08:23:38;;;;;;;;;16.50;16.25;;;;;24.47;53.99;100511.56;5077806;28;45479;-45
2022/08/17 08:26:14;;;;;;;;;16.00;16.00;;;;;24.48;53.75;100519.41;5079550;28;45284;-46
2022/08/17 08:28:44;;;;;;;;;17.50;16.75;;;;;24.52;53.37;100509.44;5094557;28;44658;-44
2022/08/17 08:31:26;;;;;;;;;17.75;17.25;;;;;24.57;53.75;100511.72;5097993;28;45790;-46
2022/08/17 08:34:22;;;;;;;;;17.00;16.50;;;;;24.62;53.04;100522.78;5079796;28;45463;-46
2022/08/17 08:37:13;;;;;;;;;17.25;14.75;;;;;24.64;53.10;100505.78;5076944;28;45683;-46
2022/08/17 08:40:06;;;;;;;;;16.00;15.25;;;;;24.65;52.92;100502.19;5077117;28;45371;-45
2022/08/17 08:42:43;;;;;;;;;16.50;16.50;;;;;24.69;53.52;100510.78;5079978;28;45417;-47
2022/08/17 08:45:24;;;;;;;;;19.75;18.00;;;;;24.70;52.80;100510.66;5096976;27;45504;-48
2022/08/17 08:48:13;;;;;;;;;18.50;17.25;;;;;24.71;52.92;100506.19;5076668;28;45953;-47
2022/08/17 08:50:55;;;;;;;;;18.25;15.25;;;;;24.74;53.14;100513.91;5085779;28;45404;-44
2022/08/17 08:53:29;;;;;;;;;16.25;14.25;;;;;24.80;53.17;100520.53;5090527;28;45295;-46
2022/08/17 08:56:05;;;;;;;;;18.50;17.25;;;;;24.85;53.09;100523.69;5082866;28;46733;-46
2022/08/17 08:59:10;;;;;;;;;17.00;17.00;;;;;24.90;52.86;100521.50;5079846;28;45276;-47
2022/08/17 09:01:42;;;;;;;;;16.75;15.25;;;;;24.95;52.93;100510.53;5077812;28;45269;-46
2022/08/17 09:04:49;;;;;;;;;14.00;13.00;;;;;24.99;52.71;100520.75;5078143;28;45266;-50
2022/08/17 09:07:37;;;;;;;;;19.50;17.25;;;;;25.01;52.60;100518.84;5078026;28;47100;-46
2022/08/17 09:10:12;;;;;;;;;17.00;17.00;;;;;25.03;52.93;100515.22;5077718;28;45351;-46
2022/08/17 09:12:56;;;;;;;;;17.25;16.00;;;;;25.04;52.70;100512.44;5097762;28;45335;-47
2022/08/17 09:15:30;;;;;;;;;19.75;17.25;;;;;25.03;52.97;100508.09;5073580;28;44823;-46
2022/08/17 09:18:12;;;;;;;;;20.00;14.75;;;;;25.00;52.92;100506.53;5076726;28;45536;-45
2022/08/17 09:20:45;;;;;;;;;18.50;16.50;;;;;25.01;52.91;100508.22;5076961;28;45227;-45
2022/08/17 09:23:17;;;;;;;;;19.25;18.75;;;;;25.05;52.76;100511.47;5059196;28;45248;-45
2022/08/17 09:25:57;;;;;;;;;18.50;15.25;;;;;25.10;52.86;100519.06;5082290;28;45304;-45
2022/08/17 09:28:32;;;;;;;;;16.00;14.25;;;;;25.15;52.60;100511.59;5076325;28;47505;-46
2022/08/17 09:31:05;;;;;;;;;23.50;17.00;;;;;25.16;52.44;100507.97;5076892;28;45342;-46
2022/08/17 09:33:35;;;;;;;;;17.75;17.75;;;;;25.17;52.90;100504.34;5077006;28;45414;-45
2022/08/17 09:36:11;;;;;;;;;16.25;15.00;;;;;25.22;52.14;100504.00;5076682;28;45343;-45
2022/08/17 09:38:57;;;;;;;;;15.75;15.75;;;;;25.24;52.69;100502.88;5058307;28;47612;-45
2022/08/17 09:41:33;;;;;;;;;14.00;14.00;;;;;25.27;52.49;100502.66;5076629;28;45386;-45
2022/08/17 09:44:10;;;;;;;;;16.50;15.25;;;;;25.30;52.47;100499.72;5075553;28;45349;-45
2022/08/17 09:46:45;;;;;;;;;20.00;19.25;;;;;25.31;52.15;100509.38;5076306;28;45933;-45
2022/08/17 09:49:29;;;;;;;;;16.75;14.25;;;;;25.34;52.00;100523.34;5075993;28;46550;-46
2022/08/17 09:52:01;;;;;;;;;16.25;14.75;;;;;25.35;52.14;100540.97;5074989;28;45419;-45
2022/08/17 09:54:36;;;;;;;;;18.00;15.50;;;;;25.34;51.89;100547.22;5075555;28;45358;-46
2022/08/17 09:57:29;;;;;;;;;17.25;15.50;;;;;25.33;51.75;100538.44;5074793;28;45463;-46
2022/08/17 10:00:14;;;;;;;;;16.75;16.25;;;;;25.35;52.16;100540.97;5074714;28;46589;-45
2022/08/17 10:03:18;;;;;;;;;17.00;14.50;;;;;25.36;52.26;100550.59;5083626;28;45542;-47
2022/08/17 10:05:54;;;;;;;;;17.00;17.00;;;;;25.35;51.96;100562.19;5082818;28;45294;-47
2022/08/17 10:08:51;;;;;;;;;21.00;18.75;;;;;25.30;52.16;100562.56;5075614;28;45906;-45
2022/08/17 10:14:32;;;;;;;;;18.50;17.00;;;;;25.15;52.24;100554.03;5077337;28;45800;-46
2022/08/17 10:17:06;;;;;;;;;19.50;17.50;;;;;25.11;52.40;100557.88;5078323;28;45298;-45
2022/08/17 10:19:45;;;;;;;;;17.00;16.25;;;;;25.09;51.96;100560.66;5078736;28;45382;-45
2022/08/17 10:27:58;;;;;;;;;17.50;15.75;;;;;25.02;51.96;100556.81;5078894;28;45331;-45
2022/08/17 10:30:27;;;;;;;;;23.50;22.25;;;;;25.05;52.01;100561.03;5079504;28;45547;-46
2022/08/17 10:33:01;;;;;;;;;23.50;21.00;;;;;25.07;52.52;100559.09;5078411;28;45542;-47
2022/08/17 10:35:42;;;;;;;;;22.75;21.25;;;;;25.08;52.17;100550.19;5078707;28;45406;-45
2022/08/17 10:38:14;;;;;;;;;26.25;21.25;;;;;25.09;52.34;100543.88;5061039;28;45471;-46
2022/08/17 10:40:50;;;;;;;;;20.25;19.75;;;;;25.07;51.76;100545.84;5079395;28;45300;-46
2022/08/17 10:43:19;;;;;;;;;26.00;21.50;;;;;25.04;51.92;100538.13;5060771;28;47953;-47
2022/08/17 10:45:51;;;;;;;;;28.50;22.75;;;;;25.01;52.49;100545.34;5082088;28;45339;-46
2022/08/17 10:48:31;;;;;;;;;19.00;17.50;;;;;25.02;52.20;100548.88;5081720;28;45330;-46
2022/08/17 10:51:07;;;;;;;;;22.50;20.50;;;;;25.05;52.54;100548.59;5092809;28;45302;-45
2022/08/17 10:53:37;;;;;;;;;19.50;18.75;;;;;25.07;52.43;100551.16;5091915;28;46684;-45
2022/08/17 10:56:20;;;;;;;;;20.50;19.25;;;;;25.07;52.47;100559.09;5093794;28;45344;-47
2022/08/17 10:58:52;;;;;;;;;21.25;19.25;;;;;25.06;52.03;100563.53;5091887;28;45340;-46
2022/08/17 11:01:42;;;;;;;;;21.75;19.50;;;;;25.07;52.16;100559.09;5093506;28;45244;-45
2022/08/17 11:04:24;;;;;;;;;20.00;20.00;;;;;25.10;52.55;100556.19;5085442;28;46688;-46
2022/08/17 11:07:13;;;;;;;;;21.50;20.75;;;;;25.12;52.33;100551.59;5082509;28;45875;-45
2022/08/17 11:09:52;;;;;;;;;20.75;18.50;;;;;25.14;51.89;100547.03;5080787;28;45277;-45
2022/08/17 11:12:37;;;;;;;;;20.25;20.00;;;;;25.18;51.72;100545.84;5078986;28;45355;-45
2022/08/17 11:15:40;;;;;;;;;24.50;20.50;;;;;25.23;51.88;100535.69;5076574;28;46452;-46
2022/08/17 11:18:30;;;;;;;;;20.50;19.50;;;;;25.25;51.85;100541.72;5077825;28;45363;-45
2022/08/17 11:20:55;;;;;;;;;19.25;18.75;;;;;25.27;52.05;100533.63;5078573;28;45379;-48
2022/08/17 11:23:36;;;;;;;;;20.00;20.00;;;;;25.27;51.73;100526.53;5090747;28;45431;-46
2022/08/17 11:26:17;;;;;;;;;19.75;17.25;;;;;25.30;52.16;100528.91;5080871;28;45318;-45
2022/08/17 11:28:49;;;;;;;;;25.00;19.25;;;;;25.35;51.59;100538.31;5078745;28;45823;-45
2022/08/17 11:31:33;;;;;;;;;22.25;21.75;;;;;25.36;51.64;100553.25;5079254;28;45496;-45
2022/08/17 11:34:06;;;;;;;;;26.00;25.00;;;;;25.36;51.47;100550.59;5079073;28;45263;-45
2022/08/17 11:36:44;;;;;;;;;23.25;23.00;;;;;25.37;51.73;100554.94;5080460;28;45412;-45
2022/08/17 11:39:27;;;;;;;;;34.25;29.00;;;;;25.37;51.49;100557.59;5083109;28;45264;-46
2022/08/17 11:42:08;;;;;;;;;26.50;26.50;;;;;25.36;52.31;100559.41;5091300;28;44792;-45
2022/08/17 11:44:59;;;;;;;;;23.75;23.50;;;;;25.35;51.60;100549.78;5087755;28;45379;-49
2022/08/17 11:53:38;;;;;;;;;26.50;26.00;;;;;25.37;51.66;100544.34;5079085;27;45378;-45
2022/08/17 11:56:06;;;;;;;;;30.50;26.00;;;;;25.36;51.88;100550.59;5077890;28;45525;-47
2022/08/17 11:58:36;;;;;;;;;29.00;27.25;;;;;25.37;51.87;100549.66;5078635;28;46458;-45
2022/08/17 12:01:06;;;;;;;;;25.75;25.25;;;;;25.36;51.85;100553.25;5082856;28;45892;-45
2022/08/17 12:03:31;;;;;;;;;32.75;29.50;;;;;25.37;52.29;100565.56;5086638;28;44754;-47
2022/08/17 12:06:18;;;;;;;;;24.25;23.50;;;;;25.37;52.17;100561.09;5056727;28;45558;-47
2022/08/17 12:08:53;;;;;;;;;26.00;23.25;;;;;25.39;52.48;100563.63;5056679;28;45538;-48